Main page
METAR-TAF:

METAR-TAF

Airports :

Kushok Bakula Rimpochee Airport

Leh, India

latitude: 34-08-09N, longitude: 077-32-47E, elevation: 3256 m

Current weather observation

The report was made 49 minutes ago, at 06:30 UTC
Wind 4 kt from the West/Southwest
Temperature
Pressure 1016 hPa
Visibility: 8000 m
Scattered clouds at a height of 7000 ft

METAR: VILH 110630Z 25004KT 8000 SCT070 24/-8 Q1016 NOSIG

Time: 12:49 (07:19 UTC)

Forecast

The report was made 21 hours and 49 minutes ago, at 09:30 UTC
Forecast valid from 10 at 18 UTC to 11 at 12 UTC
Wind 10 kt from the West/Northwest
Visibility: 6000 m
Few clouds at a height of 6000 ft
Scattered clouds at a height of 10000 ft
Becoming
from 11 at 04 UTC to 11 at 05 UTC
Scattered clouds at a height of 7000 ft
Broken clouds at a height of 9000 ft
Temporary
from 11 at 09 UTC to 11 at 12 UTC
Wind 20 kt from the West with gusts up to 30 kt

TAF: VILH 100930Z 1018/1112 29010KT 6000 FEW060 SCT100 BECMG 1104/1105 SCT070 BKN090 TEMPO 1109/1112 27020G30KT

Weather observations and forecasts of more than 4000 airports (METAR and TAF reports).

The available stations are represented by yellow and red dots on the map.

Hover mouse over dot to see the name of the station.

Then click to see weather observations and forecasts.

To change the map : click on the green buttons with a black cross to zoom in, on the green button with a dash to zoom out, or on the green arrows for adjacent maps.


METAR-TAF: